sensor_id;sensor_type;location;lat;lon;timestamp;pressure;altitude;pressure_sealevel;temperature;humidity
60015;BME280;45867;52.480;6.056;2023-07-29T00:01:22;97875.28;;;16.78;100.00
60015;BME280;45867;52.480;6.056;2023-07-29T00:03:48;97872.53;;;16.64;100.00
60015;BME280;45867;52.480;6.056;2023-07-29T00:06:22;97859.56;;;16.66;100.00
60015;BME280;45867;52.480;6.056;2023-07-29T00:08:49;97859.94;;;16.57;100.00
60015;BME280;45867;52.480;6.056;2023-07-29T00:11:18;97845.03;;;16.56;100.00
60015;BME280;45867;52.480;6.056;2023-07-29T00:13:47;97845.41;;;16.58;100.00
60015;BME280;45867;52.480;6.056;2023-07-29T00:16:16;97846.53;;;16.47;100.00
60015;BME280;45867;52.480;6.056;2023-07-29T00:18:46;97837.00;;;16.46;100.00
60015;BME280;45867;52.480;6.056;2023-07-29T00:21:16;97811.75;;;16.36;100.00
60015;BME280;45867;52.480;6.056;2023-07-29T00:23:48;97825.16;;;16.47;100.00
60015;BME280;45867;52.480;6.056;2023-07-29T00:26:15;97823.19;;;16.33;100.00
60015;BME280;45867;52.480;6.056;2023-07-29T00:28:41;97814.81;;;16.34;100.00
60015;BME280;45867;52.480;6.056;2023-07-29T00:31:22;97807.19;;;16.33;100.00
60015;BME280;45867;52.480;6.056;2023-07-29T00:33:48;97806.38;;;16.25;100.00
60015;BME280;45867;52.480;6.056;2023-07-29T00:36:15;97781.53;;;16.10;100.00
60015;BME280;45867;52.480;6.056;2023-07-29T00:38:47;97799.13;;;16.26;100.00
60015;BME280;45867;52.480;6.056;2023-07-29T00:41:14;97806.38;;;16.18;100.00
60015;BME280;45867;52.480;6.056;2023-07-29T00:43:41;97803.31;;;16.16;100.00
60015;BME280;45867;52.480;6.056;2023-07-29T00:46:09;97810.16;;;16.10;100.00
60015;BME280;45867;52.480;6.056;2023-07-29T00:48:38;97824.28;;;16.17;100.00
60015;BME280;45867;52.480;6.056;2023-07-29T00:51:05;97840.66;;;16.05;100.00
60015;BME280;45867;52.480;6.056;2023-07-29T00:53:34;97843.31;;;16.02;100.00
60015;BME280;45867;52.480;6.056;2023-07-29T00:56:00;97852.44;;;15.97;100.00
60015;BME280;45867;52.480;6.056;2023-07-29T00:58:33;97873.06;;;16.04;100.00
60015;BME280;45867;52.480;6.056;2023-07-29T01:01:00;97869.19;;;15.87;100.00
60015;BME280;45867;52.480;6.056;2023-07-29T01:03:30;97912.72;;;15.91;100.00
60015;BME280;45867;52.480;6.056;2023-07-29T01:06:11;97928.00;;;15.97;100.00
60015;BME280;45867;52.480;6.056;2023-07-29T01:08:47;97947.03;;;15.92;100.00
60015;BME280;45867;52.480;6.056;2023-07-29T01:17:15;97990.59;;;16.00;100.00
60015;BME280;45867;52.480;6.056;2023-07-29T01:20:09;98018.03;;;15.97;100.00
60015;BME280;45867;52.480;6.056;2023-07-29T01:22:39;98038.56;;;15.89;100.00
60015;BME280;45867;52.480;6.056;2023-07-29T01:25:06;98054.59;;;15.89;100.00
60015;BME280;45867;52.480;6.056;2023-07-29T01:27:34;98066.81;;;15.90;100.00
60015;BME280;45867;52.480;6.056;2023-07-29T01:30:04;98093.56;;;15.94;100.00
60015;BME280;45867;52.480;6.056;2023-07-29T01:32:54;98100.44;;;15.95;100.00
60015;BME280;45867;52.480;6.056;2023-07-29T01:35:45;98108.09;;;15.96;100.00
60015;BME280;45867;52.480;6.056;2023-07-29T01:38:29;98088.44;;;15.78;100.00
60015;BME280;45867;52.480;6.056;2023-07-29T01:40:58;98116.03;;;15.93;100.00
60015;BME280;45867;52.480;6.056;2023-07-29T01:43:27;98093.06;;;15.81;100.00
60015;BME280;45867;52.480;6.056;2023-07-29T01:46:01;98117.50;;;15.83;100.00
60015;BME280;45867;52.480;6.056;2023-07-29T01:48:30;98134.78;;;15.96;100.00
60015;BME280;45867;52.480;6.056;2023-07-29T01:50:56;98134.78;;;15.96;100.00
60015;BME280;45867;52.480;6.056;2023-07-29T01:53:26;98128.59;;;15.85;100.00
60015;BME280;45867;52.480;6.056;2023-07-29T01:55:52;98140.75;;;15.83;100.00
60015;BME280;45867;52.480;6.056;2023-07-29T01:58:19;98130.47;;;15.85;100.00
60015;BME280;45867;52.480;6.056;2023-07-29T02:00:48;98131.53;;;15.76;100.00
60015;BME280;45867;52.480;6.056;2023-07-29T02:03:24;98142.66;;;15.82;100.00
60015;BME280;45867;52.480;6.056;2023-07-29T02:05:54;98142.66;;;15.82;100.00
60015;BME280;45867;52.480;6.056;2023-07-29T02:08:32;98140.34;;;15.81;100.00
60015;BME280;45867;52.480;6.056;2023-07-29T02:10:59;98112.69;;;15.66;100.00
60015;BME280;45867;52.480;6.056;2023-07-29T02:13:25;98153.78;;;15.88;100.00
60015;BME280;45867;52.480;6.056;2023-07-29T02:15:55;98154.94;;;15.90;100.00
60015;BME280;45867;52.480;6.056;2023-07-29T02:18:24;98156.81;;;15.86;100.00
60015;BME280;45867;52.480;6.056;2023-07-29T02:20:54;98156.81;;;15.86;100.00
60015;BME280;45867;52.480;6.056;2023-07-29T02:23:22;98152.53;;;15.78;100.00
60015;BME280;45867;52.480;6.056;2023-07-29T02:25:50;98186.28;;;15.93;100.00
60015;BME280;45867;52.480;6.056;2023-07-29T02:28:22;98201.44;;;15.86;100.00
60015;BME280;45867;52.480;6.056;2023-07-29T02:31:19;98219.69;;;15.80;100.00
60015;BME280;45867;52.480;6.056;2023-07-29T02:33:49;98221.50;;;15.72;100.00
60015;BME280;45867;52.480;6.056;2023-07-29T02:36:16;98219.28;;;15.78;100.00
60015;BME280;45867;52.480;6.056;2023-07-29T02:38:43;98210.09;;;15.75;100.00
60015;BME280;45867;52.480;6.056;2023-07-29T02:41:24;98199.75;;;15.70;100.00
60015;BME280;45867;52.480;6.056;2023-07-29T02:43:54;98216.72;;;15.85;100.00
60015;BME280;45867;52.480;6.056;2023-07-29T02:46:24;98204.66;;;15.68;100.00
60015;BME280;45867;52.480;6.056;2023-07-29T02:48:56;98207.03;;;15.73;100.00
60015;BME280;45867;52.480;6.056;2023-07-29T02:51:22;98201.59;;;15.66;100.00
60015;BME280;45867;52.480;6.056;2023-07-29T02:53:55;98213.91;;;15.74;100.00
60015;BME280;45867;52.480;6.056;2023-07-29T02:56:42;98179.34;;;15.55;100.00
60015;BME280;45867;52.480;6.056;2023-07-29T02:59:12;98186.03;;;15.72;100.00
60015;BME280;45867;52.480;6.056;2023-07-29T03:01:38;98188.38;;;15.77;100.00
60015;BME280;45867;52.480;6.056;2023-07-29T03:04:04;98167.03;;;15.77;100.00
60015;BME280;45867;52.480;6.056;2023-07-29T03:06:31;98155.53;;;15.73;100.00
60015;BME280;45867;52.480;6.056;2023-07-29T03:09:00;98139.81;;;15.68;100.00
60015;BME280;45867;52.480;6.056;2023-07-29T03:11:26;98139.50;;;15.73;100.00
60015;BME280;45867;52.480;6.056;2023-07-29T03:13:53;98117.59;;;15.60;100.00
60015;BME280;45867;52.480;6.056;2023-07-29T03:16:19;98122.63;;;15.65;100.00
60015;BME280;45867;52.480;6.056;2023-07-29T03:18:48;98108.63;;;15.72;100.00
60015;BME280;45867;52.480;6.056;2023-07-29T03:21:15;98095.25;;;15.72;100.00
60015;BME280;45867;52.480;6.056;2023-07-29T03:23:42;98080.22;;;15.60;100.00
60015;BME280;45867;52.480;6.056;2023-07-29T03:26:26;98043.53;;;15.50;100.00
60015;BME280;45867;52.480;6.056;2023-07-29T03:28:52;98036.34;;;15.58;100.00
60015;BME280;45867;52.480;6.056;2023-07-29T03:31:19;98032.63;;;15.66;100.00
60015;BME280;45867;52.480;6.056;2023-07-29T03:33:45;97986.88;;;15.67;100.00
60015;BME280;45867;52.480;6.056;2023-07-29T03:36:17;97939.91;;;15.63;100.00
60015;BME280;45867;52.480;6.056;2023-07-29T03:38:43;97888.84;;;15.64;100.00
60015;BME280;45867;52.480;6.056;2023-07-29T03:41:15;97843.75;;;15.48;100.00
60015;BME280;45867;52.480;6.056;2023-07-29T03:43:42;97814.44;;;15.56;100.00
60015;BME280;45867;52.480;6.056;2023-07-29T03:46:09;97779.41;;;15.61;100.00
60015;BME280;45867;52.480;6.056;2023-07-29T03:48:38;97761.47;;;15.65;100.00
60015;BME280;45867;52.480;6.056;2023-07-29T03:51:04;97714.59;;;15.64;100.00
60015;BME280;45867;52.480;6.056;2023-07-29T03:53:31;97696.34;;;15.69;100.00
60015;BME280;45867;52.480;6.056;2023-07-29T03:55:59;97695.50;;;15.65;100.00
60015;BME280;45867;52.480;6.056;2023-07-29T03:58:26;97670.69;;;15.54;100.00
60015;BME280;45867;52.480;6.056;2023-07-29T04:00:52;97650.91;;;15.66;100.00
60015;BME280;45867;52.480;6.056;2023-07-29T04:03:19;97640.22;;;15.59;100.00
60015;BME280;45867;52.480;6.056;2023-07-29T04:05:48;97579.19;;;15.50;100.00
60015;BME280;45867;52.480;6.056;2023-07-29T04:08:18;97568.53;;;15.53;100.00
60015;BME280;45867;52.480;6.056;2023-07-29T04:10:50;97538.03;;;15.58;100.00
60015;BME280;45867;52.480;6.056;2023-07-29T04:13:19;97507.91;;;15.47;100.00
60015;BME280;45867;52.480;6.056;2023-07-29T04:15:48;97480.84;;;15.56;100.00
60015;BME280;45867;52.480;6.056;2023-07-29T04:18:15;97451.84;;;15.58;100.00
60015;BME280;45867;52.480;6.056;2023-07-29T04:20:41;97451.09;;;15.68;100.00
60015;BME280;45867;52.480;6.056;2023-07-29T04:23:08;97444.66;;;15.69;100.00
60015;BME280;45867;52.480;6.056;2023-07-29T04:25:34;97443.09;;;15.68;100.00
60015;BME280;45867;52.480;6.056;2023-07-29T04:28:01;97419.84;;;15.61;100.00
60015;BME280;45867;52.480;6.056;2023-07-29T04:30:27;97407.25;;;15.62;100.00
60015;BME280;45867;52.480;6.056;2023-07-29T04:32:54;97409.91;;;15.65;100.00
60015;BME280;45867;52.480;6.056;2023-07-29T04:35:20;97420.63;;;15.72;100.00
60015;BME280;45867;52.480;6.056;2023-07-29T04:37:50;97400.78;;;15.66;100.00
60015;BME280;45867;52.480;6.056;2023-07-29T04:40:19;97382.50;;;15.72;100.00
60015;BME280;45867;52.480;6.056;2023-07-29T04:42:45;97379.03;;;15.68;100.00
60015;BME280;45867;52.480;6.056;2023-07-29T04:45:27;97389.34;;;15.76;100.00
60015;BME280;45867;52.480;6.056;2023-07-29T04:47:57;97399.63;;;15.64;100.00
60015;BME280;45867;52.480;6.056;2023-07-29T04:50:27;97415.28;;;15.80;100.00
60015;BME280;45867;52.480;6.056;2023-07-29T04:52:53;97409.94;;;15.76;100.00
60015;BME280;45867;52.480;6.056;2023-07-29T04:55:20;97424.03;;;15.91;100.00
60015;BME280;45867;52.480;6.056;2023-07-29T04:57:55;97414.53;;;15.75;100.00
60015;BME280;45867;52.480;6.056;2023-07-29T05:00:22;97408.03;;;15.76;100.00
60015;BME280;45867;52.480;6.056;2023-07-29T05:03:05;97407.66;;;15.74;100.00
60015;BME280;45867;52.480;6.056;2023-07-29T05:05:32;97438.53;;;15.83;100.00
60015;BME280;45867;52.480;6.056;2023-07-29T05:08:04;97457.22;;;15.90;100.00
60015;BME280;45867;52.480;6.056;2023-07-29T05:10:30;97467.13;;;15.89;100.00
60015;BME280;45867;52.480;6.056;2023-07-29T05:12:57;97483.16;;;15.86;100.00
60015;BME280;45867;52.480;6.056;2023-07-29T05:15:23;97509.47;;;15.98;100.00
60015;BME280;45867;52.480;6.056;2023-07-29T05:17:50;97512.50;;;15.82;100.00
60015;BME280;45867;52.480;6.056;2023-07-29T05:20:19;97541.91;;;15.89;100.00
60015;BME280;45867;52.480;6.056;2023-07-29T05:22:48;97552.56;;;15.89;100.00
60015;BME280;45867;52.480;6.056;2023-07-29T05:25:15;97563.66;;;15.91;100.00
60015;BME280;45867;52.480;6.056;2023-07-29T05:27:43;97590.34;;;15.91;100.00
60015;BME280;45867;52.480;6.056;2023-07-29T05:33:45;97654.81;;;16.01;100.00
60015;BME280;45867;52.480;6.056;2023-07-29T05:36:12;97670.47;;;15.95;100.00
60015;BME280;45867;52.480;6.056;2023-07-29T05:38:43;97673.84;;;15.85;100.00
60015;BME280;45867;52.480;6.056;2023-07-29T05:41:15;97704.44;;;16.02;100.00
60015;BME280;45867;52.480;6.056;2023-07-29T05:43:50;97719.69;;;15.94;100.00
60015;BME280;45867;52.480;6.056;2023-07-29T05:46:36;97701.75;;;15.91;100.00
60015;BME280;45867;52.480;6.056;2023-07-29T05:49:16;97737.25;;;16.09;100.00
60015;BME280;45867;52.480;6.056;2023-07-29T05:51:43;97768.56;;;16.12;100.00
60015;BME280;45867;52.480;6.056;2023-07-29T05:54:09;97815.97;;;16.37;100.00
60015;BME280;45867;52.480;6.056;2023-07-29T05:56:58;97827.00;;;16.25;100.00
60015;BME280;45867;52.480;6.056;2023-07-29T05:59:27;97878.56;;;16.36;100.00
60015;BME280;45867;52.480;6.056;2023-07-29T06:01:53;97900.38;;;16.45;100.00
60015;BME280;45867;52.480;6.056;2023-07-29T06:04:24;97917.59;;;16.51;100.00
60015;BME280;45867;52.480;6.056;2023-07-29T06:06:54;97948.13;;;16.54;100.00
60015;BME280;45867;52.480;6.056;2023-07-29T06:09:25;97956.88;;;16.43;100.00
60015;BME280;45867;52.480;6.056;2023-07-29T06:11:58;98000.03;;;16.46;100.00
60015;BME280;45867;52.480;6.056;2023-07-29T06:14:38;98034.44;;;16.51;100.00
60015;BME280;45867;52.480;6.056;2023-07-29T06:17:06;98020.66;;;16.49;100.00
60015;BME280;45867;52.480;6.056;2023-07-29T06:19:33;98046.59;;;16.45;100.00
60015;BME280;45867;52.480;6.056;2023-07-29T06:22:03;98073.78;;;16.57;100.00
60015;BME280;45867;52.480;6.056;2023-07-29T06:24:32;98101.75;;;16.67;100.00
60015;BME280;45867;52.480;6.056;2023-07-29T06:27:03;98133.25;;;16.92;100.00
60015;BME280;45867;52.480;6.056;2023-07-29T06:29:29;98153.56;;;17.07;100.00
60015;BME280;45867;52.480;6.056;2023-07-29T06:31:56;98195.19;;;17.01;100.00
60015;BME280;45867;52.480;6.056;2023-07-29T06:34:22;98222.69;;;16.94;100.00
60015;BME280;45867;52.480;6.056;2023-07-29T06:36:55;98254.41;;;16.99;100.00
60015;BME280;45867;52.480;6.056;2023-07-29T06:39:27;98287.72;;;17.05;100.00
60015;BME280;45867;52.480;6.056;2023-07-29T06:41:55;98299.31;;;17.24;100.00
60015;BME280;45867;52.480;6.056;2023-07-29T06:44:22;98331.31;;;17.61;100.00
60015;BME280;45867;52.480;6.056;2023-07-29T06:46:48;98401.25;;;18.08;100.00
60015;BME280;45867;52.480;6.056;2023-07-29T06:49:15;98485.44;;;18.69;100.00
60015;BME280;45867;52.480;6.056;2023-07-29T06:51:44;98613.38;;;18.58;100.00
60015;BME280;45867;52.480;6.056;2023-07-29T06:54:10;98679.94;;;18.49;100.00
60015;BME280;45867;52.480;6.056;2023-07-29T06:56:37;98730.66;;;18.64;100.00
60015;BME280;45867;52.480;6.056;2023-07-29T06:59:27;98771.94;;;18.53;100.00
60015;BME280;45867;52.480;6.056;2023-07-29T07:01:58;98794.97;;;18.57;100.00
60015;BME280;45867;52.480;6.056;2023-07-29T07:04:25;98845.25;;;18.64;100.00
60015;BME280;45867;52.480;6.056;2023-07-29T07:07:05;98812.06;;;18.79;100.00
60015;BME280;45867;52.480;6.056;2023-07-29T07:09:58;98856.13;;;19.19;100.00
60015;BME280;45867;52.480;6.056;2023-07-29T07:12:34;98899.31;;;19.48;100.00
60015;BME280;45867;52.480;6.056;2023-07-29T07:15:04;98953.47;;;19.54;100.00
60015;BME280;45867;52.480;6.056;2023-07-29T07:17:30;98968.72;;;19.87;100.00
60015;BME280;45867;52.480;6.056;2023-07-29T07:19:57;99008.44;;;20.81;100.00
60015;BME280;45867;52.480;6.056;2023-07-29T07:22:32;99081.00;;;21.43;100.00
60015;BME280;45867;52.480;6.056;2023-07-29T07:25:04;99170.25;;;21.35;100.00
60015;BME280;45867;52.480;6.056;2023-07-29T07:27:43;99233.06;;;21.49;100.00
60015;BME280;45867;52.480;6.056;2023-07-29T07:30:45;99288.19;;;21.56;100.00
60015;BME280;45867;52.480;6.056;2023-07-29T07:33:11;99282.31;;;21.39;100.00
60015;BME280;45867;52.480;6.056;2023-07-29T07:40:01;99281.16;;;20.89;100.00
60015;BME280;45867;52.480;6.056;2023-07-29T07:46:07;99265.25;;;21.24;100.00
60015;BME280;45867;52.480;6.056;2023-07-29T07:48:57;99324.16;;;21.88;100.00
60015;BME280;45867;52.480;6.056;2023-07-29T07:51:25;99358.75;;;21.72;100.00
60015;BME280;45867;52.480;6.056;2023-07-29T07:53:58;99340.91;;;21.01;100.00
60015;BME280;45867;52.480;6.056;2023-07-29T07:56:25;99337.47;;;20.60;100.00
60015;BME280;45867;52.480;6.056;2023-07-29T07:59:17;99282.53;;;20.27;100.00
60015;BME280;45867;52.480;6.056;2023-07-29T08:01:46;99267.81;;;20.17;100.00
60015;BME280;45867;52.480;6.056;2023-07-29T08:04:36;99227.69;;;20.43;100.00
60015;BME280;45867;52.480;6.056;2023-07-29T08:07:11;99218.63;;;21.10;100.00
60015;BME280;45867;52.480;6.056;2023-07-29T08:09:39;99273.22;;;21.69;100.00
60015;BME280;45867;52.480;6.056;2023-07-29T08:12:05;99362.22;;;21.72;100.00
60015;BME280;45867;52.480;6.056;2023-07-29T08:14:33;99360.59;;;21.61;100.00
60015;BME280;45867;52.480;6.056;2023-07-29T08:17:00;99350.59;;;21.65;100.00
60015;BME280;45867;52.480;6.056;2023-07-29T08:19:26;99343.22;;;21.51;100.00
60015;BME280;45867;52.480;6.056;2023-07-29T08:21:55;99347.06;;;21.54;100.00
60015;BME280;45867;52.480;6.056;2023-07-29T08:24:25;99325.19;;;21.62;100.00
60015;BME280;45867;52.480;6.056;2023-07-29T08:26:57;99348.31;;;21.67;100.00
60015;BME280;45867;52.480;6.056;2023-07-29T08:29:24;99346.50;;;21.89;100.00
60015;BME280;45867;52.480;6.056;2023-07-29T08:32:04;99345.38;;;21.97;100.00
60015;BME280;45867;52.480;6.056;2023-07-29T08:34:33;99345.09;;;22.20;100.00
60015;BME280;45867;52.480;6.056;2023-07-29T08:37:00;99388.34;;;22.34;100.00
60015;BME280;45867;52.480;6.056;2023-07-29T08:39:29;99432.91;;;21.48;100.00
60015;BME280;45867;52.480;6.056;2023-07-29T08:42:07;99369.72;;;22.15;100.00
60015;BME280;45867;52.480;6.056;2023-07-29T08:44:43;99395.66;;;22.34;100.00
60015;BME280;45867;52.480;6.056;2023-07-29T08:47:12;99417.75;;;21.84;100.00
60015;BME280;45867;52.480;6.056;2023-07-29T08:49:57;99437.47;;;21.40;100.00
60015;BME280;45867;52.480;6.056;2023-07-29T08:52:32;99368.16;;;21.37;100.00
60015;BME280;45867;52.480;6.056;2023-07-29T08:55:41;99394.63;;;21.83;100.00
60015;BME280;45867;52.480;6.056;2023-07-29T08:58:48;99406.31;;;21.02;100.00
60015;BME280;45867;52.480;6.056;2023-07-29T09:01:19;99418.28;;;21.08;100.00
60015;BME280;45867;52.480;6.056;2023-07-29T09:03:46;99367.25;;;20.81;100.00
60015;BME280;45867;52.480;6.056;2023-07-29T09:06:14;99343.28;;;21.14;100.00
60015;BME280;45867;52.480;6.056;2023-07-29T09:08:45;99371.28;;;21.46;100.00
60015;BME280;45867;52.480;6.056;2023-07-29T09:11:14;99386.16;;;21.33;100.00
60015;BME280;45867;52.480;6.056;2023-07-29T09:13:41;99360.81;;;22.00;100.00
60015;BME280;45867;52.480;6.056;2023-07-29T09:16:08;99394.50;;;22.38;100.00
60015;BME280;45867;52.480;6.056;2023-07-29T09:18:36;99431.53;;;22.42;100.00
60015;BME280;45867;52.480;6.056;2023-07-29T09:21:02;99459.28;;;21.76;100.00
60015;BME280;45867;52.480;6.056;2023-07-29T09:23:40;99436.09;;;21.61;100.00
60015;BME280;45867;52.480;6.056;2023-07-29T09:26:11;99418.44;;;21.26;100.00
60015;BME280;45867;52.480;6.056;2023-07-29T09:28:40;99392.84;;;21.02;100.00
60015;BME280;45867;52.480;6.056;2023-07-29T09:31:18;99359.84;;;20.37;100.00
60015;BME280;45867;52.480;6.056;2023-07-29T09:33:47;99239.84;;;19.88;100.00
60015;BME280;45867;52.480;6.056;2023-07-29T09:36:14;99188.97;;;19.42;100.00
60015;BME280;45867;52.480;6.056;2023-07-29T09:38:42;99098.16;;;19.55;100.00
60015;BME280;45867;52.480;6.056;2023-07-29T09:41:11;99065.50;;;19.90;100.00
60015;BME280;45867;52.480;6.056;2023-07-29T09:43:39;99065.31;;;20.13;100.00
60015;BME280;45867;52.480;6.056;2023-07-29T09:46:05;99072.28;;;20.22;100.00
60015;BME280;45867;52.480;6.056;2023-07-29T09:48:38;99111.00;;;20.58;100.00
60015;BME280;45867;52.480;6.056;2023-07-29T09:51:16;99173.47;;;20.40;100.00
60015;BME280;45867;52.480;6.056;2023-07-29T09:53:45;99231.03;;;20.70;100.00
60015;BME280;45867;52.480;6.056;2023-07-29T09:56:16;99262.97;;;20.75;100.00
60015;BME280;45867;52.480;6.056;2023-07-29T09:58:44;99264.81;;;20.60;100.00
60015;BME280;45867;52.480;6.056;2023-07-29T10:01:13;99280.34;;;20.81;100.00
60015;BME280;45867;52.480;6.056;2023-07-29T10:03:55;99269.81;;;20.65;100.00
60015;BME280;45867;52.480;6.056;2023-07-29T10:06:24;99309.94;;;20.77;100.00
60015;BME280;45867;52.480;6.056;2023-07-29T10:08:54;99305.75;;;20.83;100.00
60015;BME280;45867;52.480;6.056;2023-07-29T10:11:24;99259.16;;;21.31;100.00
60015;BME280;45867;52.480;6.056;2023-07-29T10:13:54;99328.63;;;22.57;100.00
60015;BME280;45867;52.480;6.056;2023-07-29T10:16:34;99417.81;;;23.93;100.00
60015;BME280;45867;52.480;6.056;2023-07-29T10:19:07;99550.38;;;23.97;100.00
60015;BME280;45867;52.480;6.056;2023-07-29T10:21:36;99611.81;;;22.73;100.00
60015;BME280;45867;52.480;6.056;2023-07-29T10:24:16;99592.03;;;22.07;100.00
60015;BME280;45867;52.480;6.056;2023-07-29T10:26:46;99540.41;;;21.60;100.00
60015;BME280;45867;52.480;6.056;2023-07-29T10:29:13;99535.72;;;21.16;100.00
60015;BME280;45867;52.480;6.056;2023-07-29T10:31:43;99515.41;;;20.85;100.00
60015;BME280;45867;52.480;6.056;2023-07-29T10:34:11;99508.50;;;20.88;100.00
60015;BME280;45867;52.480;6.056;2023-07-29T10:36:39;99487.94;;;20.72;100.00
60015;BME280;45867;52.480;6.056;2023-07-29T10:39:09;99465.47;;;20.57;100.00
60015;BME280;45867;52.480;6.056;2023-07-29T10:42:05;99464.47;;;21.06;100.00
60015;BME280;45867;52.480;6.056;2023-07-29T10:47:28;99503.50;;;21.27;100.00
60015;BME280;45867;52.480;6.056;2023-07-29T10:49:58;99487.59;;;21.52;100.00
60015;BME280;45867;52.480;6.056;2023-07-29T10:52:50;99481.06;;;22.08;100.00
60015;BME280;45867;52.480;6.056;2023-07-29T10:55:32;99565.59;;;22.93;100.00
60015;BME280;45867;52.480;6.056;2023-07-29T10:58:15;99607.34;;;23.02;100.00
60015;BME280;45867;52.480;6.056;2023-07-29T11:00:45;99647.31;;;22.75;100.00
60015;BME280;45867;52.480;6.056;2023-07-29T11:03:13;99685.88;;;23.45;100.00
60015;BME280;45867;52.480;6.056;2023-07-29T11:05:49;100187.31;;;24.26;100.00
60015;BME280;45867;52.480;6.056;2023-07-29T11:08:19;100466.94;;;23.93;100.00
60015;BME280;45867;52.480;6.056;2023-07-29T11:13:30;100536.31;;;23.36;100.00
60015;BME280;45867;52.480;6.056;2023-07-29T11:16:00;100535.94;;;23.14;100.00
60015;BME280;45867;52.480;6.056;2023-07-29T11:18:30;100549.63;;;22.47;100.00
60015;BME280;45867;52.480;6.056;2023-07-29T11:20:57;100568.47;;;22.63;100.00
60015;BME280;45867;52.480;6.056;2023-07-29T11:23:33;100601.03;;;23.25;100.00
60015;BME280;45867;52.480;6.056;2023-07-29T11:26:01;100607.72;;;23.54;100.00
60015;BME280;45867;52.480;6.056;2023-07-29T11:28:38;100599.53;;;23.93;100.00
60015;BME280;45867;52.480;6.056;2023-07-29T11:31:05;100617.66;;;23.69;100.00
60015;BME280;45867;52.480;6.056;2023-07-29T11:33:32;100614.78;;;24.05;100.00
60015;BME280;45867;52.480;6.056;2023-07-29T11:35:58;100628.97;;;24.21;100.00
60015;BME280;45867;52.480;6.056;2023-07-29T11:38:30;100635.41;;;24.13;100.00
60015;BME280;45867;52.480;6.056;2023-07-29T11:41:04;100637.47;;;23.74;100.00
60015;BME280;45867;52.480;6.056;2023-07-29T11:43:37;100636.78;;;23.18;100.00
60015;BME280;45867;52.480;6.056;2023-07-29T11:46:06;100641.56;;;23.44;100.00
60015;BME280;45867;52.480;6.056;2023-07-29T11:48:56;100622.22;;;23.85;100.00
60015;BME280;45867;52.480;6.056;2023-07-29T11:51:28;100632.97;;;24.04;100.00
60015;BME280;45867;52.480;6.056;2023-07-29T11:53:57;100641.97;;;23.27;100.00
60015;BME280;45867;52.480;6.056;2023-07-29T11:56:29;100625.25;;;23.21;100.00
60015;BME280;45867;52.480;6.056;2023-07-29T11:58:59;100626.38;;;23.40;100.00
60015;BME280;45867;52.480;6.056;2023-07-29T12:01:33;100658.56;;;23.25;100.00
60015;BME280;45867;52.480;6.056;2023-07-29T12:04:00;100665.47;;;22.88;100.00
60015;BME280;45867;52.480;6.056;2023-07-29T12:06:27;100667.72;;;22.50;100.00
60015;BME280;45867;52.480;6.056;2023-07-29T12:08:53;100675.94;;;22.22;100.00
60015;BME280;45867;52.480;6.056;2023-07-29T12:11:28;100655.50;;;22.21;100.00
60015;BME280;45867;52.480;6.056;2023-07-29T12:13:59;100639.25;;;22.05;100.00
60015;BME280;45867;52.480;6.056;2023-07-29T12:16:26;100666.06;;;22.14;100.00
60015;BME280;45867;52.480;6.056;2023-07-29T12:18:53;100667.47;;;22.08;100.00
60015;BME280;45867;52.480;6.056;2023-07-29T12:21:22;100661.56;;;22.02;100.00
60015;BME280;45867;52.480;6.056;2023-07-29T12:23:49;100667.72;;;22.03;100.00
60015;BME280;45867;52.480;6.056;2023-07-29T12:26:30;100669.13;;;21.97;100.00
60015;BME280;45867;52.480;6.056;2023-07-29T12:29:12;100668.47;;;21.87;100.00
60015;BME280;45867;52.480;6.056;2023-07-29T12:31:38;100671.72;;;21.77;100.00
60015;BME280;45867;52.480;6.056;2023-07-29T12:34:07;100681.00;;;21.64;100.00
60015;BME280;45867;52.480;6.056;2023-07-29T12:36:50;100681.78;;;21.24;100.00
60015;BME280;45867;52.480;6.056;2023-07-29T12:39:28;100671.78;;;21.24;100.00
60015;BME280;45867;52.480;6.056;2023-07-29T12:42:01;100668.28;;;21.36;100.00
60015;BME280;45867;52.480;6.056;2023-07-29T12:44:33;100665.66;;;20.99;100.00
60015;BME280;45867;52.480;6.056;2023-07-29T12:47:04;100665.81;;;20.78;100.00
60015;BME280;45867;52.480;6.056;2023-07-29T12:49:31;100628.41;;;20.89;100.00
60015;BME280;45867;52.480;6.056;2023-07-29T12:52:01;100594.66;;;22.59;100.00
60015;BME280;45867;52.480;6.056;2023-07-29T12:54:30;100574.00;;;23.06;100.00
60015;BME280;45867;52.480;6.056;2023-07-29T12:56:56;100583.25;;;24.16;100.00
60015;BME280;45867;52.480;6.056;2023-07-29T13:00:09;100558.31;;;24.90;100.00
60015;BME280;45867;52.480;6.056;2023-07-29T13:02:43;100644.25;;;24.10;100.00
60015;BME280;45867;52.480;6.056;2023-07-29T13:05:10;100634.97;;;24.61;100.00
60015;BME280;45867;52.480;6.056;2023-07-29T13:07:38;100634.25;;;24.37;100.00
60015;BME280;45867;52.480;6.056;2023-07-29T13:10:17;100641.50;;;24.33;100.00
60015;BME280;45867;52.480;6.056;2023-07-29T13:13:00;100638.88;;;24.93;100.00
60015;BME280;45867;52.480;6.056;2023-07-29T13:15:35;100618.13;;;25.35;100.00
60015;BME280;45867;52.480;6.056;2023-07-29T13:18:02;100637.50;;;24.76;100.00
60015;BME280;45867;52.480;6.056;2023-07-29T13:20:35;100620.38;;;24.15;100.00
60015;BME280;45867;52.480;6.056;2023-07-29T13:23:04;100637.00;;;23.91;100.00
60015;BME280;45867;52.480;6.056;2023-07-29T13:25:37;100644.91;;;24.03;100.00
60015;BME280;45867;52.480;6.056;2023-07-29T13:31:19;100655.25;;;25.00;100.00
60015;BME280;45867;52.480;6.056;2023-07-29T13:33:54;100661.25;;;25.84;100.00
60015;BME280;45867;52.480;6.056;2023-07-29T13:36:28;100642.34;;;25.20;100.00